Plainview, Minnesota
Current Conditions -  °F | °C
As of 2:53 PM on Saturday 25 Oct 2014 (Local Time) from K9MN Reporting Station
Clear Clear  
Wind Chill: 62°   Ceiling: Unl
Heat Index: 62°   Visibility: 10mi
Dew Point: 24°   Wind: 20mph
Humidity: 23%   Direction: 300°WNW
Pressure: 30.03"   Gusts: 32mph
Location:  44.16°N, 92.17°W
Report Text: K9MN 251953Z AUTO 30017G28KT 10SM CLR 17/M05 A3003 RMK AO1 T01671047
Loading
Personal Weather Stations






























Interactive Weather Map
Tropical Storm Tracking
New forecast layout! Learn more

10-Day Weather Forecast

Advertisements
Track Severe Weather on mobile